sensor_id;sensor_type;location;lat;lon;timestamp;P1;durP1;ratioP1;P2;durP2;ratioP2
20179;SDS011;10249;48.900;9.090;2022-12-07T00:00:08;14.30;;;12.90;;
20179;SDS011;10249;48.900;9.090;2022-12-07T00:02:35;12.10;;;11.20;;
20179;SDS011;10249;48.900;9.090;2022-12-07T00:05:02;12.77;;;11.50;;
20179;SDS011;10249;48.900;9.090;2022-12-07T00:07:29;11.40;;;10.00;;
20179;SDS011;10249;48.900;9.090;2022-12-07T00:09:57;15.40;;;13.80;;
20179;SDS011;10249;48.900;9.090;2022-12-07T00:12:24;15.67;;;13.93;;
20179;SDS011;10249;48.900;9.090;2022-12-07T00:14:51;12.23;;;11.10;;
20179;SDS011;10249;48.900;9.090;2022-12-07T00:17:19;13.50;;;12.03;;
20179;SDS011;10249;48.900;9.090;2022-12-07T00:19:46;14.27;;;13.03;;
20179;SDS011;10249;48.900;9.090;2022-12-07T00:22:13;13.73;;;12.43;;
20179;SDS011;10249;48.900;9.090;2022-12-07T00:24:40;14.17;;;12.87;;
20179;SDS011;10249;48.900;9.090;2022-12-07T00:27:08;11.10;;;10.10;;
20179;SDS011;10249;48.900;9.090;2022-12-07T00:29:35;13.73;;;12.40;;
20179;SDS011;10249;48.900;9.090;2022-12-07T00:32:03;12.70;;;11.70;;
20179;SDS011;10249;48.900;9.090;2022-12-07T00:34:30;14.07;;;13.00;;
20179;SDS011;10249;48.900;9.090;2022-12-07T00:36:57;17.33;;;15.73;;
20179;SDS011;10249;48.900;9.090;2022-12-07T00:39:24;11.13;;;10.50;;
20179;SDS011;10249;48.900;9.090;2022-12-07T00:41:51;10.03;;;9.47;;
20179;SDS011;10249;48.900;9.090;2022-12-07T00:44:19;15.43;;;13.93;;
20179;SDS011;10249;48.900;9.090;2022-12-07T00:46:46;13.73;;;12.63;;
20179;SDS011;10249;48.900;9.090;2022-12-07T00:49:14;14.10;;;13.00;;
20179;SDS011;10249;48.900;9.090;2022-12-07T00:51:41;14.97;;;13.77;;
20179;SDS011;10249;48.900;9.090;2022-12-07T00:54:08;15.23;;;13.73;;
20179;SDS011;10249;48.900;9.090;2022-12-07T00:56:35;13.07;;;11.93;;
20179;SDS011;10249;48.900;9.090;2022-12-07T00:59:02;13.20;;;12.10;;
20179;SDS011;10249;48.900;9.090;2022-12-07T01:01:32;15.87;;;14.37;;
20179;SDS011;10249;48.900;9.090;2022-12-07T01:03:59;10.80;;;10.13;;
20179;SDS011;10249;48.900;9.090;2022-12-07T01:06:27;16.23;;;14.67;;
20179;SDS011;10249;48.900;9.090;2022-12-07T01:08:54;13.07;;;12.07;;
20179;SDS011;10249;48.900;9.090;2022-12-07T01:11:22;13.93;;;12.50;;
20179;SDS011;10249;48.900;9.090;2022-12-07T01:13:50;9.00;;;8.70;;
20179;SDS011;10249;48.900;9.090;2022-12-07T01:16:17;8.30;;;8.00;;
20179;SDS011;10249;48.900;9.090;2022-12-07T01:18:46;9.43;;;9.07;;
20179;SDS011;10249;48.900;9.090;2022-12-07T01:21:15;12.33;;;11.63;;
20179;SDS011;10249;48.900;9.090;2022-12-07T01:23:44;9.83;;;9.43;;
20179;SDS011;10249;48.900;9.090;2022-12-07T01:26:12;11.93;;;11.07;;
20179;SDS011;10249;48.900;9.090;2022-12-07T01:28:39;7.90;;;7.70;;
20179;SDS011;10249;48.900;9.090;2022-12-07T01:31:07;9.03;;;8.73;;
20179;SDS011;10249;48.900;9.090;2022-12-07T01:33:35;8.10;;;7.90;;
20179;SDS011;10249;48.900;9.090;2022-12-07T01:36:04;7.90;;;7.70;;
20179;SDS011;10249;48.900;9.090;2022-12-07T01:38:32;10.63;;;9.93;;
20179;SDS011;10249;48.900;9.090;2022-12-07T01:41:00;11.13;;;10.40;;
20179;SDS011;10249;48.900;9.090;2022-12-07T01:43:27;10.17;;;9.60;;
20179;SDS011;10249;48.900;9.090;2022-12-07T01:45:55;10.43;;;9.93;;
20179;SDS011;10249;48.900;9.090;2022-12-07T01:48:24;8.60;;;8.30;;
20179;SDS011;10249;48.900;9.090;2022-12-07T01:50:53;7.60;;;7.40;;
20179;SDS011;10249;48.900;9.090;2022-12-07T01:53:24;8.00;;;7.80;;
20179;SDS011;10249;48.900;9.090;2022-12-07T01:55:52;9.90;;;9.40;;
20179;SDS011;10249;48.900;9.090;2022-12-07T01:58:20;7.70;;;7.50;;
20179;SDS011;10249;48.900;9.090;2022-12-07T02:00:47;7.97;;;7.73;;
20179;SDS011;10249;48.900;9.090;2022-12-07T02:03:15;7.77;;;7.53;;
20179;SDS011;10249;48.900;9.090;2022-12-07T02:05:44;11.60;;;10.90;;
20179;SDS011;10249;48.900;9.090;2022-12-07T02:08:12;11.40;;;10.47;;
20179;SDS011;10249;48.900;9.090;2022-12-07T02:10:41;13.30;;;12.30;;
20179;SDS011;10249;48.900;9.090;2022-12-07T02:13:09;13.63;;;12.40;;
20179;SDS011;10249;48.900;9.090;2022-12-07T02:15:41;7.53;;;7.33;;
20179;SDS011;10249;48.900;9.090;2022-12-07T02:18:13;7.30;;;7.10;;
20179;SDS011;10249;48.900;9.090;2022-12-07T02:20:43;6.90;;;6.70;;
20179;SDS011;10249;48.900;9.090;2022-12-07T02:26:11;7.00;;;6.80;;
20179;SDS011;10249;48.900;9.090;2022-12-07T02:28:51;7.00;;;6.80;;
20179;SDS011;10249;48.900;9.090;2022-12-07T02:31:22;7.00;;;6.80;;
20179;SDS011;10249;48.900;9.090;2022-12-07T02:33:51;7.63;;;7.33;;
20179;SDS011;10249;48.900;9.090;2022-12-07T02:36:21;8.03;;;7.73;;
20179;SDS011;10249;48.900;9.090;2022-12-07T02:38:54;10.00;;;9.40;;
20179;SDS011;10249;48.900;9.090;2022-12-07T02:41:24;7.87;;;7.47;;
20179;SDS011;10249;48.900;9.090;2022-12-07T02:43:55;6.90;;;6.70;;
20179;SDS011;10249;48.900;9.090;2022-12-07T02:46:25;11.63;;;10.77;;
20179;SDS011;10249;48.900;9.090;2022-12-07T02:48:52;7.80;;;7.60;;
20179;SDS011;10249;48.900;9.090;2022-12-07T02:51:21;9.60;;;9.00;;
20179;SDS011;10249;48.900;9.090;2022-12-07T02:53:48;7.00;;;6.80;;
20179;SDS011;10249;48.900;9.090;2022-12-07T02:56:18;7.20;;;7.00;;
20179;SDS011;10249;48.900;9.090;2022-12-07T02:58:50;7.93;;;7.50;;
20179;SDS011;10249;48.900;9.090;2022-12-07T03:01:25;7.20;;;7.00;;
20179;SDS011;10249;48.900;9.090;2022-12-07T03:03:57;7.10;;;6.90;;
20179;SDS011;10249;48.900;9.090;2022-12-07T03:06:26;7.50;;;7.30;;
20179;SDS011;10249;48.900;9.090;2022-12-07T03:08:56;6.80;;;6.60;;
20179;SDS011;10249;48.900;9.090;2022-12-07T03:11:25;9.40;;;8.80;;
20179;SDS011;10249;48.900;9.090;2022-12-07T03:13:58;11.93;;;10.87;;
20179;SDS011;10249;48.900;9.090;2022-12-07T03:16:30;6.47;;;6.27;;
20179;SDS011;10249;48.900;9.090;2022-12-07T03:19:01;6.97;;;6.77;;
20179;SDS011;10249;48.900;9.090;2022-12-07T03:21:31;8.00;;;7.70;;
20179;SDS011;10249;48.900;9.090;2022-12-07T03:23:59;6.73;;;6.53;;
20179;SDS011;10249;48.900;9.090;2022-12-07T03:26:28;6.80;;;6.60;;
20179;SDS011;10249;48.900;9.090;2022-12-07T03:28:58;7.97;;;7.67;;
20179;SDS011;10249;48.900;9.090;2022-12-07T03:31:28;9.10;;;8.40;;
20179;SDS011;10249;48.900;9.090;2022-12-07T03:33:59;6.90;;;6.70;;
20179;SDS011;10249;48.900;9.090;2022-12-07T03:36:29;6.60;;;6.40;;
20179;SDS011;10249;48.900;9.090;2022-12-07T03:38:57;7.00;;;6.80;;
20179;SDS011;10249;48.900;9.090;2022-12-07T03:41:28;6.80;;;6.60;;
20179;SDS011;10249;48.900;9.090;2022-12-07T03:43:56;6.63;;;6.43;;
20179;SDS011;10249;48.900;9.090;2022-12-07T03:46:27;7.20;;;7.00;;
20179;SDS011;10249;48.900;9.090;2022-12-07T03:49:03;7.20;;;7.00;;
20179;SDS011;10249;48.900;9.090;2022-12-07T03:51:34;6.80;;;6.60;;
20179;SDS011;10249;48.900;9.090;2022-12-07T03:54:05;7.00;;;6.80;;
20179;SDS011;10249;48.900;9.090;2022-12-07T03:56:36;8.47;;;8.17;;
20179;SDS011;10249;48.900;9.090;2022-12-07T03:59:03;7.50;;;7.30;;
20179;SDS011;10249;48.900;9.090;2022-12-07T04:01:31;7.90;;;7.70;;
20179;SDS011;10249;48.900;9.090;2022-12-07T04:03:58;8.00;;;7.80;;
20179;SDS011;10249;48.900;9.090;2022-12-07T04:06:26;10.50;;;9.80;;
20179;SDS011;10249;48.900;9.090;2022-12-07T04:08:53;13.43;;;12.67;;
20179;SDS011;10249;48.900;9.090;2022-12-07T04:11:20;9.67;;;9.37;;
20179;SDS011;10249;48.900;9.090;2022-12-07T04:13:47;10.60;;;10.20;;
20179;SDS011;10249;48.900;9.090;2022-12-07T04:16:32;10.23;;;9.63;;
20179;SDS011;10249;48.900;9.090;2022-12-07T04:18:59;13.13;;;12.30;;
20179;SDS011;10249;48.900;9.090;2022-12-07T04:21:28;12.07;;;11.10;;
20179;SDS011;10249;48.900;9.090;2022-12-07T04:23:55;13.53;;;12.43;;
20179;SDS011;10249;48.900;9.090;2022-12-07T04:26:22;9.07;;;8.77;;
20179;SDS011;10249;48.900;9.090;2022-12-07T04:28:49;11.07;;;10.57;;
20179;SDS011;10249;48.900;9.090;2022-12-07T04:31:16;10.37;;;9.97;;
20179;SDS011;10249;48.900;9.090;2022-12-07T04:33:43;11.13;;;10.73;;
20179;SDS011;10249;48.900;9.090;2022-12-07T04:36:10;14.83;;;13.63;;
20179;SDS011;10249;48.900;9.090;2022-12-07T04:38:39;14.13;;;13.20;;
20179;SDS011;10249;48.900;9.090;2022-12-07T04:41:06;15.13;;;13.87;;
20179;SDS011;10249;48.900;9.090;2022-12-07T04:43:33;14.90;;;13.80;;
20179;SDS011;10249;48.900;9.090;2022-12-07T04:46:01;17.53;;;16.13;;
20179;SDS011;10249;48.900;9.090;2022-12-07T04:48:28;16.57;;;15.37;;
20179;SDS011;10249;48.900;9.090;2022-12-07T04:50:55;12.00;;;11.50;;
20179;SDS011;10249;48.900;9.090;2022-12-07T04:53:22;13.57;;;12.67;;
20179;SDS011;10249;48.900;9.090;2022-12-07T04:55:51;17.13;;;15.87;;
20179;SDS011;10249;48.900;9.090;2022-12-07T04:58:18;15.23;;;14.23;;
20179;SDS011;10249;48.900;9.090;2022-12-07T05:00:45;16.67;;;15.23;;
20179;SDS011;10249;48.900;9.090;2022-12-07T05:03:12;17.83;;;16.23;;
20179;SDS011;10249;48.900;9.090;2022-12-07T05:05:40;15.40;;;14.00;;
20179;SDS011;10249;48.900;9.090;2022-12-07T05:08:07;17.77;;;15.83;;
20179;SDS011;10249;48.900;9.090;2022-12-07T05:10:34;14.63;;;13.53;;
20179;SDS011;10249;48.900;9.090;2022-12-07T05:13:03;17.67;;;15.83;;
20179;SDS011;10249;48.900;9.090;2022-12-07T05:15:30;14.10;;;13.00;;
20179;SDS011;10249;48.900;9.090;2022-12-07T05:17:57;9.00;;;8.50;;
20179;SDS011;10249;48.900;9.090;2022-12-07T05:20:24;8.70;;;8.40;;
20179;SDS011;10249;48.900;9.090;2022-12-07T05:22:51;8.90;;;8.60;;
20179;SDS011;10249;48.900;9.090;2022-12-07T05:25:18;8.57;;;8.27;;
20179;SDS011;10249;48.900;9.090;2022-12-07T05:27:45;8.50;;;8.20;;
20179;SDS011;10249;48.900;9.090;2022-12-07T05:32:42;8.60;;;8.30;;
20179;SDS011;10249;48.900;9.090;2022-12-07T05:35:09;9.20;;;8.87;;
20179;SDS011;10249;48.900;9.090;2022-12-07T05:37:36;8.40;;;8.10;;
20179;SDS011;10249;48.900;9.090;2022-12-07T05:40:03;8.40;;;8.10;;
20179;SDS011;10249;48.900;9.090;2022-12-07T05:42:31;8.60;;;8.30;;
20179;SDS011;10249;48.900;9.090;2022-12-07T05:44:58;8.90;;;8.60;;
20179;SDS011;10249;48.900;9.090;2022-12-07T05:47:25;11.70;;;11.10;;
20179;SDS011;10249;48.900;9.090;2022-12-07T05:49:53;9.43;;;9.13;;
20179;SDS011;10249;48.900;9.090;2022-12-07T05:52:20;9.60;;;9.30;;
20179;SDS011;10249;48.900;9.090;2022-12-07T05:54:47;10.63;;;10.13;;
20179;SDS011;10249;48.900;9.090;2022-12-07T05:57:15;13.47;;;12.57;;
20179;SDS011;10249;48.900;9.090;2022-12-07T05:59:42;16.43;;;14.67;;
20179;SDS011;10249;48.900;9.090;2022-12-07T06:02:08;10.00;;;9.70;;
20179;SDS011;10249;48.900;9.090;2022-12-07T06:04:37;9.87;;;9.57;;
20179;SDS011;10249;48.900;9.090;2022-12-07T06:07:06;12.63;;;11.77;;
20179;SDS011;10249;48.900;9.090;2022-12-07T06:09:33;9.67;;;9.37;;
20179;SDS011;10249;48.900;9.090;2022-12-07T06:12:01;9.70;;;9.40;;
20179;SDS011;10249;48.900;9.090;2022-12-07T06:14:42;11.10;;;10.70;;
20179;SDS011;10249;48.900;9.090;2022-12-07T06:17:09;10.00;;;9.70;;
20179;SDS011;10249;48.900;9.090;2022-12-07T06:19:37;10.87;;;10.37;;
20179;SDS011;10249;48.900;9.090;2022-12-07T06:22:05;10.80;;;10.40;;
20179;SDS011;10249;48.900;9.090;2022-12-07T06:24:34;14.10;;;13.13;;
20179;SDS011;10249;48.900;9.090;2022-12-07T06:27:01;10.90;;;10.50;;
20179;SDS011;10249;48.900;9.090;2022-12-07T06:29:28;11.30;;;10.90;;
20179;SDS011;10249;48.900;9.090;2022-12-07T06:31:55;11.97;;;11.47;;
20179;SDS011;10249;48.900;9.090;2022-12-07T06:34:22;10.77;;;10.37;;
20179;SDS011;10249;48.900;9.090;2022-12-07T06:36:50;11.70;;;11.20;;
20179;SDS011;10249;48.900;9.090;2022-12-07T06:39:20;13.47;;;12.67;;
20179;SDS011;10249;48.900;9.090;2022-12-07T06:41:48;11.73;;;11.30;;
20179;SDS011;10249;48.900;9.090;2022-12-07T06:44:16;12.73;;;12.17;;
20179;SDS011;10249;48.900;9.090;2022-12-07T06:46:43;11.60;;;11.20;;
20179;SDS011;10249;48.900;9.090;2022-12-07T06:49:11;13.70;;;13.07;;
20179;SDS011;10249;48.900;9.090;2022-12-07T06:51:38;12.80;;;12.30;;
20179;SDS011;10249;48.900;9.090;2022-12-07T06:54:06;11.30;;;10.90;;
20179;SDS011;10249;48.900;9.090;2022-12-07T06:56:34;12.68;;;12.07;;
20179;SDS011;10249;48.900;9.090;2022-12-07T06:59:01;11.80;;;11.40;;
20179;SDS011;10249;48.900;9.090;2022-12-07T07:01:30;12.50;;;12.00;;
20179;SDS011;10249;48.900;9.090;2022-12-07T07:03:57;13.70;;;13.10;;
20179;SDS011;10249;48.900;9.090;2022-12-07T07:06:24;13.00;;;12.50;;
20179;SDS011;10249;48.900;9.090;2022-12-07T07:08:51;12.63;;;12.13;;
20179;SDS011;10249;48.900;9.090;2022-12-07T07:11:18;15.30;;;14.47;;
20179;SDS011;10249;48.900;9.090;2022-12-07T07:13:47;17.40;;;16.20;;
20179;SDS011;10249;48.900;9.090;2022-12-07T07:16:14;13.97;;;13.27;;
20179;SDS011;10249;48.900;9.090;2022-12-07T07:18:41;12.33;;;11.83;;
20179;SDS011;10249;48.900;9.090;2022-12-07T07:21:08;14.03;;;13.20;;
20179;SDS011;10249;48.900;9.090;2022-12-07T07:23:35;12.70;;;12.20;;
20179;SDS011;10249;48.900;9.090;2022-12-07T07:26:02;13.70;;;13.10;;
20179;SDS011;10249;48.900;9.090;2022-12-07T07:28:29;14.77;;;14.00;;
20179;SDS011;10249;48.900;9.090;2022-12-07T07:30:58;13.93;;;13.13;;
20179;SDS011;10249;48.900;9.090;2022-12-07T07:33:25;14.23;;;13.53;;
20179;SDS011;10249;48.900;9.090;2022-12-07T07:35:52;17.83;;;16.63;;
20179;SDS011;10249;48.900;9.090;2022-12-07T07:38:19;15.13;;;14.53;;
20179;SDS011;10249;48.900;9.090;2022-12-07T07:40:46;16.80;;;15.80;;
20179;SDS011;10249;48.900;9.090;2022-12-07T07:43:13;14.43;;;13.67;;
20179;SDS011;10249;48.900;9.090;2022-12-07T07:45:40;16.30;;;15.37;;
20179;SDS011;10249;48.900;9.090;2022-12-07T07:48:09;13.77;;;13.27;;
20179;SDS011;10249;48.900;9.090;2022-12-07T07:50:36;14.70;;;14.10;;
20179;SDS011;10249;48.900;9.090;2022-12-07T07:53:03;13.50;;;13.00;;
20179;SDS011;10249;48.900;9.090;2022-12-07T07:55:30;13.30;;;12.80;;
20179;SDS011;10249;48.900;9.090;2022-12-07T07:57:57;12.97;;;12.47;;
20179;SDS011;10249;48.900;9.090;2022-12-07T08:00:24;13.93;;;13.33;;
20179;SDS011;10249;48.900;9.090;2022-12-07T08:02:52;15.23;;;14.43;;
20179;SDS011;10249;48.900;9.090;2022-12-07T08:05:20;15.07;;;14.37;;
20179;SDS011;10249;48.900;9.090;2022-12-07T08:07:47;14.00;;;13.40;;
20179;SDS011;10249;48.900;9.090;2022-12-07T08:10:14;14.00;;;13.40;;
20179;SDS011;10249;48.900;9.090;2022-12-07T08:12:42;14.37;;;13.77;;
20179;SDS011;10249;48.900;9.090;2022-12-07T08:15:27;13.93;;;13.33;;
20179;SDS011;10249;48.900;9.090;2022-12-07T08:17:55;14.20;;;13.60;;
20179;SDS011;10249;48.900;9.090;2022-12-07T08:20:23;14.60;;;14.00;;
20179;SDS011;10249;48.900;9.090;2022-12-07T08:22:50;14.30;;;13.70;;
20179;SDS011;10249;48.900;9.090;2022-12-07T08:25:17;16.23;;;15.33;;
20179;SDS011;10249;48.900;9.090;2022-12-07T08:27:45;14.20;;;13.60;;
20179;SDS011;10249;48.900;9.090;2022-12-07T08:30:12;13.83;;;13.23;;
20179;SDS011;10249;48.900;9.090;2022-12-07T08:32:39;14.00;;;13.40;;
20179;SDS011;10249;48.900;9.090;2022-12-07T08:35:06;14.13;;;13.53;;
20179;SDS011;10249;48.900;9.090;2022-12-07T08:37:35;13.97;;;13.37;;
20179;SDS011;10249;48.900;9.090;2022-12-07T08:40:03;14.10;;;13.50;;
20179;SDS011;10249;48.900;9.090;2022-12-07T08:42:30;14.57;;;13.83;;
20179;SDS011;10249;48.900;9.090;2022-12-07T08:45:03;14.03;;;13.43;;
20179;SDS011;10249;48.900;9.090;2022-12-07T08:47:30;14.50;;;13.90;;
20179;SDS011;10249;48.900;9.090;2022-12-07T08:49:57;13.80;;;13.20;;
20179;SDS011;10249;48.900;9.090;2022-12-07T08:52:28;15.77;;;14.80;;
20179;SDS011;10249;48.900;9.090;2022-12-07T08:54:57;14.60;;;13.90;;
20179;SDS011;10249;48.900;9.090;2022-12-07T08:57:26;13.77;;;13.17;;
20179;SDS011;10249;48.900;9.090;2022-12-07T08:59:53;13.10;;;12.60;;
20179;SDS011;10249;48.900;9.090;2022-12-07T09:02:20;16.37;;;15.23;;
20179;SDS011;10249;48.900;9.090;2022-12-07T09:04:47;14.77;;;14.17;;
20179;SDS011;10249;48.900;9.090;2022-12-07T09:07:14;13.00;;;12.50;;
20179;SDS011;10249;48.900;9.090;2022-12-07T09:09:42;17.10;;;15.80;;
20179;SDS011;10249;48.900;9.090;2022-12-07T09:12:10;13.60;;;13.00;;
20179;SDS011;10249;48.900;9.090;2022-12-07T09:14:37;15.07;;;14.37;;
20179;SDS011;10249;48.900;9.090;2022-12-07T09:17:05;15.83;;;14.80;;
20179;SDS011;10249;48.900;9.090;2022-12-07T09:19:32;14.20;;;13.60;;
20179;SDS011;10249;48.900;9.090;2022-12-07T09:21:59;14.20;;;13.60;;
20179;SDS011;10249;48.900;9.090;2022-12-07T09:24:26;18.00;;;16.70;;
20179;SDS011;10249;48.900;9.090;2022-12-07T09:26:53;17.10;;;16.00;;
20179;SDS011;10249;48.900;9.090;2022-12-07T09:29:22;14.93;;;14.13;;
20179;SDS011;10249;48.900;9.090;2022-12-07T09:31:49;16.00;;;14.97;;
20179;SDS011;10249;48.900;9.090;2022-12-07T09:34:16;17.53;;;16.17;;
20179;SDS011;10249;48.900;9.090;2022-12-07T09:36:43;14.20;;;13.50;;
20179;SDS011;10249;48.900;9.090;2022-12-07T09:39:10;15.70;;;14.70;;
20179;SDS011;10249;48.900;9.090;2022-12-07T09:41:37;16.83;;;15.83;;
20179;SDS011;10249;48.900;9.090;2022-12-07T09:44:06;15.47;;;14.57;;
20179;SDS011;10249;48.900;9.090;2022-12-07T09:46:36;15.37;;;14.47;;
20179;SDS011;10249;48.900;9.090;2022-12-07T09:49:05;17.17;;;15.83;;
20179;SDS011;10249;48.900;9.090;2022-12-07T09:51:36;15.63;;;14.67;;
20179;SDS011;10249;48.900;9.090;2022-12-07T09:54:03;17.00;;;15.90;;
20179;SDS011;10249;48.900;9.090;2022-12-07T09:56:31;15.00;;;14.13;;
20179;SDS011;10249;48.900;9.090;2022-12-07T09:58:59;15.23;;;14.30;;
20179;SDS011;10249;48.900;9.090;2022-12-07T10:01:28;16.20;;;15.10;;
20179;SDS011;10249;48.900;9.090;2022-12-07T10:03:59;15.17;;;14.23;;
20179;SDS011;10249;48.900;9.090;2022-12-07T10:06:27;14.37;;;13.50;;
20179;SDS011;10249;48.900;9.090;2022-12-07T10:08:54;14.60;;;13.90;;
20179;SDS011;10249;48.900;9.090;2022-12-07T10:11:22;13.23;;;12.63;;
20179;SDS011;10249;48.900;9.090;2022-12-07T10:13:50;12.77;;;12.17;;
20179;SDS011;10249;48.900;9.090;2022-12-07T10:16:28;14.50;;;13.60;;
20179;SDS011;10249;48.900;9.090;2022-12-07T10:18:59;13.87;;;13.17;;
20179;SDS011;10249;48.900;9.090;2022-12-07T10:21:59;14.90;;;14.10;;
20179;SDS011;10249;48.900;9.090;2022-12-07T10:24:26;15.70;;;14.60;;
20179;SDS011;10249;48.900;9.090;2022-12-07T10:26:54;15.90;;;15.00;;
20179;SDS011;10249;48.900;9.090;2022-12-07T10:29:22;15.50;;;14.60;;
20179;SDS011;10249;48.900;9.090;2022-12-07T10:31:52;15.67;;;14.33;;
20179;SDS011;10249;48.900;9.090;2022-12-07T10:34:23;16.40;;;15.30;;
20179;SDS011;10249;48.900;9.090;2022-12-07T10:36:50;16.57;;;15.57;;
20179;SDS011;10249;48.900;9.090;2022-12-07T10:39:18;20.20;;;18.23;;
20179;SDS011;10249;48.900;9.090;2022-12-07T10:41:52;15.47;;;14.30;;
20179;SDS011;10249;48.900;9.090;2022-12-07T10:44:21;14.33;;;13.37;;
20179;SDS011;10249;48.900;9.090;2022-12-07T10:46:58;15.97;;;14.97;;
20179;SDS011;10249;48.900;9.090;2022-12-07T10:52:18;17.57;;;16.33;;
20179;SDS011;10249;48.900;9.090;2022-12-07T10:54:52;15.03;;;14.13;;
20179;SDS011;10249;48.900;9.090;2022-12-07T10:57:30;14.60;;;13.70;;
20179;SDS011;10249;48.900;9.090;2022-12-07T11:00:08;15.07;;;13.97;;
20179;SDS011;10249;48.900;9.090;2022-12-07T11:05:22;16.53;;;15.43;;
20179;SDS011;10249;48.900;9.090;2022-12-07T11:07:54;16.67;;;15.57;;
20179;SDS011;10249;48.900;9.090;2022-12-07T11:10:25;15.90;;;14.80;;
20179;SDS011;10249;48.900;9.090;2022-12-07T11:13:04;18.43;;;17.03;;
20179;SDS011;10249;48.900;9.090;2022-12-07T11:15:36;17.60;;;16.10;;
20179;SDS011;10249;48.900;9.090;2022-12-07T11:18:07;17.77;;;16.20;;
20179;SDS011;10249;48.900;9.090;2022-12-07T11:20:40;19.40;;;17.80;;
20179;SDS011;10249;48.900;9.090;2022-12-07T11:23:15;18.13;;;16.70;;
20179;SDS011;10249;48.900;9.090;2022-12-07T11:25:46;17.30;;;15.87;;
20179;SDS011;10249;48.900;9.090;2022-12-07T11:28:18;17.80;;;16.30;;
20179;SDS011;10249;48.900;9.090;2022-12-07T11:30:48;18.47;;;17.07;;
20179;SDS011;10249;48.900;9.090;2022-12-07T11:33:19;16.60;;;15.40;;
20179;SDS011;10249;48.900;9.090;2022-12-07T11:35:52;16.27;;;15.17;;
20179;SDS011;10249;48.900;9.090;2022-12-07T11:38:23;16.87;;;15.53;;
20179;SDS011;10249;48.900;9.090;2022-12-07T11:40:53;16.67;;;15.47;;
20179;SDS011;10249;48.900;9.090;2022-12-07T11:43:37;17.67;;;16.47;;
20179;SDS011;10249;48.900;9.090;2022-12-07T11:46:08;15.70;;;14.50;;
20179;SDS011;10249;48.900;9.090;2022-12-07T11:48:37;18.07;;;16.50;;
20179;SDS011;10249;48.900;9.090;2022-12-07T11:51:06;19.57;;;18.00;;
20179;SDS011;10249;48.900;9.090;2022-12-07T11:53:37;18.93;;;17.63;;
20179;SDS011;10249;48.900;9.090;2022-12-07T11:56:07;16.13;;;15.07;;
20179;SDS011;10249;48.900;9.090;2022-12-07T11:58:39;17.37;;;15.93;;
20179;SDS011;10249;48.900;9.090;2022-12-07T12:01:11;17.97;;;16.67;;
20179;SDS011;10249;48.900;9.090;2022-12-07T12:03:41;14.17;;;13.33;;
20179;SDS011;10249;48.900;9.090;2022-12-07T12:06:10;17.53;;;16.27;;
20179;SDS011;10249;48.900;9.090;2022-12-07T12:08:39;18.50;;;17.10;;
20179;SDS011;10249;48.900;9.090;2022-12-07T12:11:09;18.60;;;17.10;;
20179;SDS011;10249;48.900;9.090;2022-12-07T12:13:46;20.17;;;18.37;;
20179;SDS011;10249;48.900;9.090;2022-12-07T12:16:22;14.83;;;13.83;;
20179;SDS011;10249;48.900;9.090;2022-12-07T12:18:58;18.93;;;17.37;;
20179;SDS011;10249;48.900;9.090;2022-12-07T12:21:30;17.90;;;16.60;;
20179;SDS011;10249;48.900;9.090;2022-12-07T12:23:59;19.27;;;17.77;;
20179;SDS011;10249;48.900;9.090;2022-12-07T12:26:28;16.23;;;15.03;;
20179;SDS011;10249;48.900;9.090;2022-12-07T12:28:56;18.03;;;16.53;;
20179;SDS011;10249;48.900;9.090;2022-12-07T12:31:32;19.47;;;17.80;;
20179;SDS011;10249;48.900;9.090;2022-12-07T12:34:02;16.40;;;15.10;;
20179;SDS011;10249;48.900;9.090;2022-12-07T12:36:43;18.93;;;17.33;;
20179;SDS011;10249;48.900;9.090;2022-12-07T12:39:12;19.67;;;18.17;;
20179;SDS011;10249;48.900;9.090;2022-12-07T12:41:52;18.57;;;17.07;;
20179;SDS011;10249;48.900;9.090;2022-12-07T12:44:39;17.03;;;15.63;;
20179;SDS011;10249;48.900;9.090;2022-12-07T12:47:37;16.77;;;15.10;;
20179;SDS011;10249;48.900;9.090;2022-12-07T12:52:50;16.17;;;15.10;;
20179;SDS011;10249;48.900;9.090;2022-12-07T12:55:22;16.43;;;15.23;;
20179;SDS011;10249;48.900;9.090;2022-12-07T13:00:33;19.43;;;17.73;;
20179;SDS011;10249;48.900;9.090;2022-12-07T13:03:00;16.57;;;15.27;;
20179;SDS011;10249;48.900;9.090;2022-12-07T13:05:28;17.87;;;16.50;;
20179;SDS011;10249;48.900;9.090;2022-12-07T13:07:56;19.57;;;17.87;;
20179;SDS011;10249;48.900;9.090;2022-12-07T13:18:41;30.47;;;24.53;;
20179;SDS011;10249;48.900;9.090;2022-12-07T13:23:54;19.47;;;17.90;;
20179;SDS011;10249;48.900;9.090;2022-12-07T13:26:22;13.97;;;13.00;;
20179;SDS011;10249;48.900;9.090;2022-12-07T13:28:51;18.23;;;16.37;;
20179;SDS011;10249;48.900;9.090;2022-12-07T13:31:24;18.00;;;16.53;;
20179;SDS011;10249;48.900;9.090;2022-12-07T13:33:53;16.97;;;15.57;;
20179;SDS011;10249;48.900;9.090;2022-12-07T13:36:21;17.00;;;15.83;;
20179;SDS011;10249;48.900;9.090;2022-12-07T13:38:50;13.20;;;12.50;;
20179;SDS011;10249;48.900;9.090;2022-12-07T13:41:18;13.97;;;13.27;;
20179;SDS011;10249;48.900;9.090;2022-12-07T13:43:46;20.27;;;18.37;;
20179;SDS011;10249;48.900;9.090;2022-12-07T13:46:14;20.67;;;18.87;;
20179;SDS011;10249;48.900;9.090;2022-12-07T13:48:44;22.10;;;20.07;;
20179;SDS011;10249;48.900;9.090;2022-12-07T13:51:18;18.10;;;16.67;;
20179;SDS011;10249;48.900;9.090;2022-12-07T13:53:49;17.67;;;16.50;;
20179;SDS011;10249;48.900;9.090;2022-12-07T13:56:16;17.57;;;16.40;;
20179;SDS011;10249;48.900;9.090;2022-12-07T13:58:43;21.53;;;19.47;;
20179;SDS011;10249;48.900;9.090;2022-12-07T14:01:10;18.73;;;17.03;;
20179;SDS011;10249;48.900;9.090;2022-12-07T14:03:38;22.33;;;20.23;;
20179;SDS011;10249;48.900;9.090;2022-12-07T14:06:18;20.63;;;18.93;;
20179;SDS011;10249;48.900;9.090;2022-12-07T14:08:46;17.47;;;15.90;;
20179;SDS011;10249;48.900;9.090;2022-12-07T14:11:14;21.73;;;19.80;;
20179;SDS011;10249;48.900;9.090;2022-12-07T14:13:44;20.07;;;18.33;;
20179;SDS011;10249;48.900;9.090;2022-12-07T14:16:21;22.47;;;20.10;;
20179;SDS011;10249;48.900;9.090;2022-12-07T14:18:50;20.33;;;18.60;;
20179;SDS011;10249;48.900;9.090;2022-12-07T14:21:19;16.23;;;15.23;;
20179;SDS011;10249;48.900;9.090;2022-12-07T14:24:02;21.50;;;19.50;;
20179;SDS011;10249;48.900;9.090;2022-12-07T14:26:29;21.73;;;19.63;;
20179;SDS011;10249;48.900;9.090;2022-12-07T14:31:38;21.03;;;19.13;;
20179;SDS011;10249;48.900;9.090;2022-12-07T14:34:09;16.67;;;15.50;;
20179;SDS011;10249;48.900;9.090;2022-12-07T14:36:39;19.97;;;16.70;;
20179;SDS011;10249;48.900;9.090;2022-12-07T14:39:06;19.80;;;18.10;;
20179;SDS011;10249;48.900;9.090;2022-12-07T14:41:33;18.57;;;16.97;;
20179;SDS011;10249;48.900;9.090;2022-12-07T14:44:19;21.47;;;19.47;;
20179;SDS011;10249;48.900;9.090;2022-12-07T14:46:46;19.33;;;17.83;;
20179;SDS011;10249;48.900;9.090;2022-12-07T14:49:14;13.43;;;12.83;;
20179;SDS011;10249;48.900;9.090;2022-12-07T14:51:42;19.97;;;18.07;;
20179;SDS011;10249;48.900;9.090;2022-12-07T14:54:12;20.23;;;18.00;;
20179;SDS011;10249;48.900;9.090;2022-12-07T14:56:40;20.80;;;19.00;;
20179;SDS011;10249;48.900;9.090;2022-12-07T14:59:08;21.93;;;19.87;;
20179;SDS011;10249;48.900;9.090;2022-12-07T15:01:35;18.87;;;17.27;;
20179;SDS011;10249;48.900;9.090;2022-12-07T15:04:03;20.00;;;18.17;;
20179;SDS011;10249;48.900;9.090;2022-12-07T15:06:30;20.97;;;18.77;;
20179;SDS011;10249;48.900;9.090;2022-12-07T15:08:58;18.80;;;17.20;;